createdAt,value
2023-02-11T00:01:39.239Z,4.88
2023-02-11T00:04:09.254Z,5.1
2023-02-11T00:06:39.287Z,5.92
2023-02-11T00:11:39.327Z,6.15
2023-02-11T00:14:09.342Z,4.93
2023-02-11T00:16:39.426Z,4.21
2023-02-11T00:19:09.388Z,4.97
2023-02-11T00:21:39.411Z,5.06
2023-02-11T00:24:09.456Z,5.32
2023-02-11T00:26:39.474Z,4.46
2023-02-11T00:29:09.511Z,4.22
2023-02-11T00:31:39.789Z,3.95
2023-02-11T00:34:09.543Z,3.71
2023-02-11T00:36:39.551Z,3.72
2023-02-11T00:39:09.589Z,3.86
2023-02-11T00:41:39.590Z,3.95
2023-02-11T00:44:09.625Z,4.95
2023-02-11T00:46:39.824Z,4.13
2023-02-11T00:49:09.700Z,3.51
2023-02-11T00:51:39.713Z,3.26
2023-02-11T00:54:09.703Z,3.87
2023-02-11T00:59:09.765Z,4.19
2023-02-11T01:01:39.843Z,4.01
2023-02-11T01:04:09.819Z,3.49
2023-02-11T01:09:09.869Z,2.94
2023-02-11T01:11:39.878Z,2.72
2023-02-11T01:14:09.895Z,2.9
2023-02-11T01:19:09.975Z,2.61
2023-02-11T01:21:40.008Z,3.04
2023-02-11T01:26:40.080Z,3.09
2023-02-11T01:29:10.117Z,4.22
2023-02-11T01:31:40.101Z,3.12
2023-02-11T01:34:10.148Z,3.02
2023-02-11T01:36:40.145Z,2.81
2023-02-11T01:39:10.171Z,3.34
2023-02-11T01:41:40.176Z,2.67
2023-02-11T01:44:10.182Z,2.76
2023-02-11T01:46:40.249Z,2.76
2023-02-11T01:49:10.423Z,2.8
2023-02-11T01:51:40.257Z,2.54
2023-02-11T01:54:10.298Z,3.09
2023-02-11T01:56:40.310Z,3.26
2023-02-11T01:59:10.333Z,3.02
2023-02-11T02:01:40.513Z,3.16
2023-02-11T02:04:10.380Z,3.12
2023-02-11T02:06:40.393Z,2.79
2023-02-11T02:09:10.418Z,3.16
2023-02-11T02:14:10.459Z,4.31
2023-02-11T02:19:10.520Z,5.27
2023-02-11T02:21:40.538Z,4.54
2023-02-11T02:24:12.585Z,4.34
2023-02-11T02:26:40.589Z,4.11
2023-02-11T02:29:10.626Z,3.85
2023-02-11T02:31:40.719Z,4.41
2023-02-11T02:34:10.655Z,4.41
2023-02-11T02:36:40.683Z,4.16
2023-02-11T02:39:10.724Z,3.37
2023-02-11T02:41:40.720Z,3.74
2023-02-11T02:46:40.889Z,3.29
2023-02-11T02:49:10.809Z,3.52
2023-02-11T02:51:40.830Z,3.96
2023-02-11T02:54:10.866Z,5.36
2023-02-11T02:56:40.870Z,4.17
2023-02-11T02:59:10.899Z,4.11
2023-02-11T03:01:40.938Z,3.81
2023-02-11T03:06:40.972Z,3.51
2023-02-11T03:14:11.047Z,4.21
2023-02-11T03:16:41.145Z,4.07
2023-02-11T03:19:11.094Z,4.35
2023-02-11T03:21:41.122Z,4.06
2023-02-11T03:24:11.172Z,3.93
2023-02-11T03:26:41.172Z,4.21
2023-02-11T03:29:11.190Z,3.79
2023-02-11T03:31:41.393Z,3.74
2023-02-11T03:36:41.237Z,3.44
2023-02-11T03:39:11.259Z,3.62
2023-02-11T03:41:41.287Z,3.96
2023-02-11T03:44:11.310Z,3.94
2023-02-11T03:46:41.363Z,3.92
2023-02-11T03:49:11.380Z,3.58
2023-02-11T03:51:41.387Z,3.46
2023-02-11T03:54:11.421Z,4.38
2023-02-11T03:56:41.446Z,4.4
2023-02-11T04:04:11.498Z,4.36
2023-02-11T04:06:41.540Z,3.81
2023-02-11T04:09:11.565Z,4.98
2023-02-11T04:14:11.606Z,5
2023-02-11T04:16:41.806Z,4.42
2023-02-11T04:19:11.667Z,4.44
2023-02-11T04:26:41.735Z,4.84
2023-02-11T04:29:11.759Z,6.06
2023-02-11T04:34:11.802Z,5.46
2023-02-11T04:36:41.824Z,6.04
2023-02-11T04:39:11.898Z,5.83
2023-02-11T04:41:41.873Z,5.76
2023-02-11T04:44:11.894Z,5.17
2023-02-11T04:46:41.913Z,6.6
2023-02-11T04:49:11.945Z,6.92
2023-02-11T04:54:11.993Z,7.25
2023-02-11T04:56:41.997Z,6.9
2023-02-11T04:59:12.046Z,6.6
2023-02-11T05:01:42.131Z,5.83
2023-02-11T05:04:12.152Z,6.6
2023-02-11T05:06:42.095Z,7.75
2023-02-11T05:09:12.132Z,6.89
2023-02-11T05:14:12.168Z,6.27
2023-02-11T05:21:53.150Z,7.51
2023-02-11T05:26:42.290Z,9.1
2023-02-11T05:29:12.305Z,9.84
2023-02-11T05:31:42.334Z,8.21
2023-02-11T05:34:12.363Z,8.15
2023-02-11T05:36:42.374Z,7.58
2023-02-11T05:39:12.509Z,7.82
2023-02-11T05:41:42.431Z,8.42
2023-02-11T05:44:12.448Z,7.34
2023-02-11T05:46:42.572Z,8.09
2023-02-11T05:49:12.496Z,8.57
2023-02-11T05:51:42.515Z,7.54
2023-02-11T05:54:12.550Z,7.59
2023-02-11T05:56:44.468Z,9.46
2023-02-11T05:59:12.611Z,9.58
2023-02-11T06:01:42.614Z,10.47
2023-02-11T06:04:12.633Z,8.21
2023-02-11T06:06:42.675Z,8.99
2023-02-11T06:09:12.702Z,8.72
2023-02-11T06:11:42.746Z,7.46
2023-02-11T06:14:12.733Z,7.52
2023-02-11T06:16:42.761Z,9.11
2023-02-11T06:19:12.788Z,8.48
2023-02-11T06:21:44.419Z,9.02
2023-02-11T06:26:42.845Z,11.11
2023-02-11T06:29:12.902Z,9.47
2023-02-11T06:31:43.095Z,8.92
2023-02-11T06:34:12.931Z,9.17
2023-02-11T06:39:12.987Z,11.25
2023-02-11T06:41:42.984Z,8.52
2023-02-11T06:44:13.012Z,8.1
2023-02-11T06:46:43.089Z,10.05
2023-02-11T06:51:43.083Z,10.4
2023-02-11T06:54:13.132Z,8.89
2023-02-11T06:56:43.130Z,8.28
2023-02-11T06:59:13.161Z,7.65
2023-02-11T07:01:43.381Z,10.29
2023-02-11T07:04:13.200Z,10.46
2023-02-11T07:09:13.300Z,8.87
2023-02-11T07:11:43.271Z,8.06
2023-02-11T07:14:13.316Z,8.64
2023-02-11T07:19:13.353Z,9.03
2023-02-11T07:21:43.406Z,9.12
2023-02-11T07:24:13.396Z,8.93
2023-02-11T07:26:43.415Z,8.73
2023-02-11T07:29:13.453Z,9.91
2023-02-11T07:31:43.683Z,9.17
2023-02-11T07:34:13.494Z,9.52
2023-02-11T07:39:13.532Z,11.92
2023-02-11T07:41:43.595Z,11.75
2023-02-11T07:44:13.593Z,10.3
2023-02-11T07:46:43.688Z,11.7
2023-02-11T07:56:43.706Z,10.83
2023-02-11T07:59:13.716Z,9.42
2023-02-11T08:01:43.788Z,11.03
2023-02-11T08:06:43.800Z,12.37
2023-02-11T08:09:13.852Z,12.48
2023-02-11T08:11:43.849Z,12.93
2023-02-11T08:14:13.862Z,12.02
2023-02-11T08:21:43.947Z,10.94
2023-02-11T08:24:13.950Z,9.42
2023-02-11T08:26:43.988Z,9.98
2023-02-11T08:31:44.233Z,11.73
2023-02-11T08:34:14.063Z,13.71
2023-02-11T08:36:44.087Z,12.78
2023-02-11T08:39:19.782Z,13.25
2023-02-11T08:41:44.119Z,12.84
2023-02-11T08:44:14.165Z,11.8
2023-02-11T08:49:14.219Z,11.08
2023-02-11T08:54:14.261Z,10.02
2023-02-11T08:56:44.264Z,10.94
2023-02-11T08:59:14.300Z,9.32
2023-02-11T09:06:44.373Z,12.4
2023-02-11T09:09:14.394Z,12.29
2023-02-11T09:11:44.427Z,10.57
2023-02-11T09:19:18.828Z,8.56
2023-02-11T09:21:48.878Z,9.5
2023-02-11T09:24:18.888Z,8.74
2023-02-11T09:26:48.916Z,10.62
2023-02-11T09:29:18.919Z,11.19
2023-02-11T09:31:49.173Z,12.32
2023-02-11T09:34:18.976Z,11.97
2023-02-11T09:36:49.038Z,11.43
2023-02-11T09:39:19.019Z,9.6
2023-02-11T09:41:49.054Z,10.46
2023-02-11T09:44:19.069Z,10.91
2023-02-11T09:46:49.106Z,10.34
2023-02-11T09:51:49.161Z,10.83
2023-02-11T09:54:19.194Z,11.82
2023-02-11T09:56:49.181Z,10.46
2023-02-11T10:01:49.337Z,10.14
2023-02-11T10:04:19.339Z,10.09
2023-02-11T10:06:49.271Z,8.95
2023-02-11T10:09:19.321Z,8.38
2023-02-11T10:11:49.329Z,8.22
2023-02-11T10:14:19.346Z,8.53
2023-02-11T10:16:49.364Z,8.6
2023-02-11T10:19:19.387Z,8.56
2023-02-11T10:21:49.419Z,9.15
2023-02-11T10:24:19.442Z,8.84
2023-02-11T10:26:49.482Z,8.59
2023-02-11T10:29:19.488Z,9.54
2023-02-11T10:34:19.570Z,9.33
2023-02-11T10:36:49.565Z,9.67
2023-02-11T10:39:19.592Z,9.25
2023-02-11T10:41:49.608Z,9.44
2023-02-11T10:44:19.774Z,9.43
2023-02-11T10:46:49.732Z,9.02
2023-02-11T10:51:49.696Z,7.85
2023-02-11T10:54:19.715Z,7.22
2023-02-11T10:56:49.823Z,7.41
2023-02-11T11:01:49.856Z,8.16
2023-02-11T11:04:19.898Z,8.95
2023-02-11T11:06:49.896Z,8.25
2023-02-11T11:14:19.910Z,5.97
2023-02-11T11:16:49.934Z,6.6
2023-02-11T11:24:20.028Z,5.96
2023-02-11T11:26:50.088Z,6.01
2023-02-11T11:29:20.059Z,6.74
2023-02-11T11:34:20.127Z,5.74
2023-02-11T11:39:20.148Z,5.19
2023-02-11T11:41:50.158Z,5.41
2023-02-11T11:44:20.213Z,5.9
2023-02-11T11:46:50.268Z,6.99
2023-02-11T11:51:50.255Z,5.61
2023-02-11T11:54:20.319Z,5.59
2023-02-11T11:59:20.313Z,5.1
2023-02-11T12:01:50.410Z,5.1
2023-02-11T12:04:20.380Z,5.1
2023-02-11T12:06:50.416Z,5.57
2023-02-11T12:09:20.420Z,5.53
2023-02-11T12:11:50.453Z,5.66
2023-02-11T12:16:50.583Z,5.84
2023-02-11T12:19:20.498Z,5.84
2023-02-11T12:21:51.058Z,6.71
2023-02-11T12:26:55.373Z,5.72
2023-02-11T12:29:20.686Z,5.15
2023-02-11T12:31:50.926Z,4.95
2023-02-11T12:34:20.706Z,4.85
2023-02-11T12:39:20.712Z,5.16
2023-02-11T12:41:50.735Z,5.49
2023-02-11T12:46:50.796Z,5.65
2023-02-11T12:49:20.804Z,5.59
2023-02-11T12:51:50.966Z,4.84
2023-02-11T12:54:20.867Z,4.77
2023-02-11T12:59:20.893Z,5.37
2023-02-11T13:04:20.950Z,5.43
2023-02-11T13:06:50.970Z,4.89
2023-02-11T13:09:21.001Z,5.33
2023-02-11T13:11:51.009Z,4.7
2023-02-11T13:21:51.095Z,4.07
2023-02-11T13:29:21.168Z,3.93
2023-02-11T13:39:21.261Z,3.78
2023-02-11T13:41:52.751Z,3.75
2023-02-11T13:44:21.298Z,3.8
2023-02-11T13:46:51.322Z,3.97
2023-02-11T13:49:21.370Z,4.75
2023-02-11T13:51:51.391Z,3.91
2023-02-11T13:54:21.409Z,3.9
2023-02-11T13:56:51.440Z,4.13
2023-02-11T13:59:21.512Z,3.58
2023-02-11T14:06:51.520Z,3.67
2023-02-11T14:09:21.556Z,3.74
2023-02-11T14:11:51.577Z,4.54
2023-02-11T14:16:51.678Z,3.61
2023-02-11T14:19:21.665Z,3.43
2023-02-11T14:21:51.676Z,3.3
2023-02-11T14:24:21.713Z,3.62
2023-02-11T14:29:21.740Z,4.02
2023-02-11T14:31:51.904Z,3.33
2023-02-11T14:34:21.799Z,3.15
2023-02-11T14:36:51.841Z,3.05
2023-02-11T14:44:21.901Z,2.85
2023-02-11T14:46:51.906Z,3.37
2023-02-11T14:54:21.972Z,2.52
2023-02-11T14:56:52.005Z,2.65
2023-02-11T14:59:22.047Z,2.98
2023-02-11T15:01:52.143Z,3.26
2023-02-11T15:06:52.106Z,3.2
2023-02-11T15:14:22.168Z,2.46
2023-02-11T15:16:52.196Z,3.04
2023-02-11T15:24:22.270Z,2.86
2023-02-11T15:26:52.289Z,3.27
2023-02-11T15:31:52.449Z,2.99
2023-02-11T15:36:52.486Z,2.99
2023-02-11T15:39:22.438Z,2.9
2023-02-11T15:44:22.458Z,2.81
2023-02-11T15:49:22.513Z,3.19
2023-02-11T15:51:52.533Z,2.63
2023-02-11T15:54:22.549Z,2.5
2023-02-11T16:01:52.767Z,2.33
2023-02-11T16:06:52.676Z,2.38
2023-02-11T16:14:22.807Z,2.67
2023-02-11T16:21:52.824Z,2.42
2023-02-11T16:31:52.928Z,2.73
2023-02-11T16:34:22.922Z,3.62
2023-02-11T16:46:53.118Z,3.81
2023-02-11T16:54:23.147Z,4.03
2023-02-11T16:56:53.145Z,3.89
2023-02-11T17:01:53.222Z,3.74
2023-02-11T17:04:23.335Z,3.85
2023-02-11T17:06:53.263Z,4.21
2023-02-11T17:09:23.292Z,3.9
2023-02-11T17:11:53.273Z,4.17
2023-02-11T17:19:23.329Z,3.26
2023-02-11T17:24:23.389Z,3.46
2023-02-11T17:29:23.449Z,3.24
2023-02-11T17:39:23.534Z,4.89
2023-02-11T17:41:53.565Z,3.96
2023-02-11T17:46:53.606Z,3.88
2023-02-11T17:51:53.641Z,4.3
2023-02-11T17:54:23.672Z,4.24
2023-02-11T17:56:55.163Z,3.71
2023-02-11T17:59:23.718Z,3.54
2023-02-11T18:04:23.861Z,4.42
2023-02-11T18:19:23.918Z,4.79
2023-02-11T18:24:23.967Z,4.5
2023-02-11T18:26:53.976Z,4.84
2023-02-11T18:31:54.127Z,4.99
2023-02-11T18:34:24.060Z,4.83
2023-02-11T18:41:54.171Z,4.35
2023-02-11T18:51:54.221Z,3.73
2023-02-11T18:54:24.264Z,5.05
2023-02-11T19:01:54.611Z,5.22
2023-02-11T19:06:54.370Z,5.83
2023-02-11T19:11:54.628Z,5.84
2023-02-11T19:16:54.574Z,4.91
2023-02-11T19:24:24.527Z,4.91
2023-02-11T19:26:54.590Z,5.31
2023-02-11T19:31:54.787Z,5.99
2023-02-11T19:34:24.633Z,5.76
2023-02-11T19:39:24.739Z,5.14
2023-02-11T19:44:24.715Z,5.78
2023-02-11T19:54:24.809Z,5.69
2023-02-11T19:59:24.859Z,5.23
2023-02-11T20:01:55.025Z,5.92
2023-02-11T20:09:24.961Z,5.74
2023-02-11T20:11:54.990Z,5.31
2023-02-11T20:14:27.508Z,5.43
2023-02-11T20:16:55.029Z,6.65
2023-02-11T20:19:25.087Z,6.09
2023-02-11T20:24:25.235Z,5.64
2023-02-11T20:26:55.177Z,6.13
2023-02-11T20:29:25.151Z,6.14
2023-02-11T20:31:55.474Z,5.91
2023-02-11T20:34:25.256Z,6.43
2023-02-11T20:36:55.223Z,6.23
2023-02-11T20:41:55.261Z,5.61
2023-02-11T20:44:25.289Z,5.89
2023-02-11T20:46:55.323Z,6.81
2023-02-11T20:49:25.354Z,6.37
2023-02-11T20:51:55.352Z,6.37
2023-02-11T20:54:25.371Z,6.3
2023-02-11T20:56:55.441Z,6.56
2023-02-11T20:59:25.416Z,6.31
2023-02-11T21:01:55.702Z,5.89
2023-02-11T21:04:25.474Z,5.9
2023-02-11T21:06:55.496Z,5.56
2023-02-11T21:09:25.522Z,6.47
2023-02-11T21:11:55.542Z,6.74
2023-02-11T21:14:25.571Z,7.06
2023-02-11T21:19:25.633Z,6.11
2023-02-11T21:21:55.642Z,6.19
2023-02-11T21:24:25.693Z,6.27
2023-02-11T21:26:55.695Z,6.06
2023-02-11T21:29:25.701Z,6.73
2023-02-11T21:31:55.841Z,6.47
2023-02-11T21:36:55.776Z,5.54
2023-02-11T21:39:25.795Z,5.73
2023-02-11T21:41:55.833Z,5.92
2023-02-11T21:46:55.965Z,6.85
2023-02-11T21:49:25.933Z,7
2023-02-11T21:51:55.929Z,6.98
2023-02-11T21:54:25.953Z,6.75
2023-02-11T21:56:56.002Z,7.02
2023-02-11T21:59:26.014Z,7.26
2023-02-11T22:01:56.033Z,5.99
2023-02-11T22:04:26.069Z,6.1
2023-02-11T22:06:56.070Z,5.78
2023-02-11T22:09:26.092Z,6.67
2023-02-11T22:11:56.120Z,6.86
2023-02-11T22:14:26.165Z,6.73
2023-02-11T22:16:56.208Z,5.96
2023-02-11T22:19:26.189Z,6.26
2023-02-11T22:21:56.249Z,6.62
2023-02-11T22:24:26.268Z,6.99
2023-02-11T22:26:56.288Z,6.59
2023-02-11T22:29:26.287Z,6.54
2023-02-11T22:31:56.346Z,5.68
2023-02-11T22:34:26.320Z,5.78
2023-02-11T22:36:56.350Z,5.51
2023-02-11T22:39:26.383Z,6.81
2023-02-11T22:41:56.399Z,7.02
2023-02-11T22:44:26.427Z,6.1
2023-02-11T22:46:56.442Z,5.83
2023-02-11T22:49:26.456Z,6.25
2023-02-11T22:51:56.468Z,6.21
2023-02-11T22:54:26.511Z,7.88
2023-02-11T22:56:56.534Z,7.19
2023-02-11T23:01:56.787Z,7
2023-02-11T23:04:26.596Z,6.24
2023-02-11T23:06:56.627Z,6.23
2023-02-11T23:09:26.676Z,6.05
2023-02-11T23:11:56.695Z,6.34
2023-02-11T23:14:26.702Z,6.93
2023-02-11T23:16:56.815Z,6.86
2023-02-11T23:19:26.741Z,7.06
2023-02-11T23:21:56.783Z,6.44
2023-02-11T23:24:26.783Z,7.4
2023-02-11T23:26:56.822Z,7.04
2023-02-11T23:29:26.841Z,6.42
2023-02-11T23:31:58.804Z,7.05
2023-02-11T23:34:26.898Z,6.57
2023-02-11T23:36:56.901Z,6.59
2023-02-11T23:39:26.919Z,6.18
2023-02-11T23:41:56.967Z,6.28
2023-02-11T23:44:26.990Z,6.93
2023-02-11T23:46:56.990Z,6.73
2023-02-11T23:49:27.200Z,6.13
2023-02-11T23:51:57.056Z,6.45
2023-02-11T23:54:27.086Z,6.34
2023-02-11T23:56:57.090Z,6.18
2023-02-11T23:59:27.132Z,6.98
